Moffit, ND (58560)

4:06 PM CDT on March 28, 2017 (GMT -0500)
Hwy 34 Hazelton | | Change Station

Elev 1982 ft 46.49 °N, 100.27 °W | Updated 14 seconds ago

Partly Cloudy
Partly Cloudy
58.6 °F
Feels Like 58.6 °F
N
10.5
Wind Variable Wind from SSE
Gusts 12.3 mph

Today
High -- | Low -- °F
--% Chance of Precip.
Yesterday
High -- | Low -- °F
Precip. -- in
Pressure 30.11 in
Visibility 10.0 miles
Clouds Clear
Dew Point 37 °F
Humidity 44%
Rainfall 0.00 in
Snow Depth Not available.
7:27 AM 8:05 PM
New Moon, 1% visible
METAR KBIS 282052Z 14009G17KT 10SM CLR 17/02 A3008 RMK AO2 SLP194 T01670017 58019
Pressure 30.11 in
Visibility 10.0 miles
Clouds Clear
Dew Point 37 °F
Humidity 44%
Rainfall 0.00 in
Snow Depth Not available.
7:27 AM 8:05 PM
New Moon, 1% visible
METAR KBIS 282052Z 14009G17KT 10SM CLR 17/02 A3008 RMK AO2 SLP194 T01670017 58019

Get Severe Weather Alerts

Thanks for signing up!

Be on the lookout for a verification email in your inbox.

You'll start receiving the daily forecast at 8 AM.

×

10-Day Weather Forecast

Almanac

Astronomy

Mar. 28, 2017 Rise Set
Actual Time
Civil Twilight
Nautical Twilight
Astronomical Twilight
Moon
Length of Visible Light
Length of Day
Tomorrow will be .
, % of the Moon is Illuminated

Today's Extremes

State Highs State Lows

Community

WunderPhotos

Upload Photos

1,962,540 photos uploaded!

WunderBlog® & News

Nearby

Air Quality

  Air Quality AQ Index Pollutant
Not available.

Snow Depth

Station Depth Elevation

Earthquake Activity

City Distance Mag. Time & Date
Minimum magnitude displayed is 2.5.

Earthquake Activity

City Distance Mag. Time & Date
Minimum magnitude displayed is 2.5.

Coastal Water Temperatures

Place Temperature

Stations

Nearby Weather Stations

Station Location Temp. Windchill Dew Point Humidity Wind Precip. Elev Updated Type
                   

Watches & Warnings

There are currently no watches in effect.